Time;durP1;ratioP1;P1;durP2;ratioP2;P2;SDS_P1;SDS_P2;PMS_P1;PMS_P2;Temp;Humidity;BMP_temperature;BMP_pressure;BME280_temperature;BME280_humidity;BME280_pressure;Samples;Min_cycle;Max_cycle;Signal;HPM_P1;HPM_P2
2023/08/19 00:00:52;;;;;;;;;;;25.40;97.30;;;;;;4956225;29;20504;-72
2023/08/19 00:03:17;;;;;;;8.32;3.28;;;25.30;97.40;;;;;;4938172;29;20474;-71
2023/08/19 00:05:44;;;;;;;;;;;25.30;97.50;;;;;;4955819;29;20023;-71
2023/08/19 00:08:09;;;;;;;7.60;3.10;;;25.20;97.40;;;;;;4955863;29;19937;-71
2023/08/19 00:10:35;;;;;;;;;;;25.20;97.60;;;;;;4955962;29;20094;-70
2023/08/19 00:13:00;;;;;;;7.47;3.28;;;25.20;97.80;;;;;;4938285;29;19913;-71
2023/08/19 00:15:26;;;;;;;5.28;3.35;;;25.20;98.10;;;;;;4955598;29;20459;-71
2023/08/19 00:17:51;;;;;;;;;;;25.10;98.60;;;;;;4956203;29;20038;-71
2023/08/19 00:20:17;;;;;;;8.85;3.33;;;25.00;99.00;;;;;;4955263;29;19913;-71
2023/08/19 00:22:42;;;;;;;;;;;25.00;99.30;;;;;;4938390;28;20063;-71
2023/08/19 00:25:08;;;;;;;7.82;3.97;;;25.00;99.60;;;;;;4938145;29;20017;-71
2023/08/19 00:27:34;;;;;;;;;;;24.90;99.80;;;;;;4955868;29;20047;-71
2023/08/19 00:29:59;;;;;;;5.53;3.22;;;24.90;99.90;;;;;;4941946;29;19974;-72
2023/08/19 00:32:24;;;;;;;;;;;24.90;99.90;;;;;;4919759;29;20027;-71
2023/08/19 00:34:50;;;;;;;8.00;3.30;;;24.90;99.90;;;;;;4918756;29;19913;-71
2023/08/19 00:37:15;;;;;;;;;;;24.90;99.90;;;;;;4936512;29;20027;-71
2023/08/19 00:39:41;;;;;;;5.80;3.30;;;24.80;99.90;;;;;;4918979;29;20364;-71
2023/08/19 00:42:06;;;;;;;;;;;24.70;99.90;;;;;;4936434;29;20397;-71
2023/08/19 00:44:34;;;;;;;7.60;3.47;;;24.80;99.90;;;;;;4919015;29;19985;-71
2023/08/19 00:47:03;;;;;;;8.20;3.53;;;24.70;99.90;;;;;;4936263;29;20028;-72
2023/08/19 00:49:30;;;;;;;7.47;3.28;;;24.70;99.90;;;;;;4922923;29;20035;-72
2023/08/19 00:51:57;;;;;;;8.77;3.35;;;24.70;99.90;;;;;;4939790;29;20131;-73
2023/08/19 00:54:22;;;;;;;9.52;3.25;;;24.70;99.90;;;;;;4922786;29;20031;-71
2023/08/19 00:56:48;;;;;;;;;;;24.70;99.90;;;;;;4940413;29;20024;-72
2023/08/19 00:59:14;;;;;;;8.32;3.70;;;24.60;99.90;;;;;;4922732;29;19946;-72
2023/08/19 01:01:39;;;;;;;;;;;24.60;99.90;;;;;;4923078;29;20023;-71
2023/08/19 01:04:05;;;;;;;10.48;3.70;;;24.60;99.90;;;;;;4923020;29;19937;-71
2023/08/19 01:06:49;;;;;;;;;;;24.60;99.90;;;;;;4939877;29;20024;-71
2023/08/19 01:09:52;;;;;;;10.60;3.70;;;24.50;99.90;;;;;;4940144;29;19945;-72
2023/08/19 01:12:54;;;;;;;8.27;3.90;;;24.50;99.90;;;;;;4913664;29;20036;-71
2023/08/19 01:15:27;;;;;;;7.07;3.63;;;24.50;99.90;;;;;;4939998;29;20030;-72
2023/08/19 01:17:53;;;;;;;10.00;3.63;;;24.40;99.90;;;;;;4940375;29;20035;-71
2023/08/19 01:20:21;;;;;;;6.82;4.20;;;24.40;99.90;;;;;;4939304;29;20024;-71
2023/08/19 01:22:53;;;;;;;7.30;3.40;;;24.40;99.90;;;;;;4922259;29;20038;-71
2023/08/19 01:25:20;;;;;;;5.82;3.53;;;24.40;99.90;;;;;;4922311;29;20409;-71
2023/08/19 01:27:45;;;;;;;9.85;3.70;;;24.40;99.90;;;;;;4939452;29;20032;-71
2023/08/19 01:30:11;;;;;;;;;;;24.30;99.90;;;;;;4954829;29;20025;-72
2023/08/19 01:32:38;;;;;;;6.90;3.53;;;24.30;99.90;;;;;;4958302;28;19906;-72
2023/08/19 01:35:05;;;;;;;6.90;3.90;;;24.30;99.90;;;;;;4958582;29;20034;-72
2023/08/19 01:37:44;;;;;;;5.82;3.35;;;24.30;99.90;;;;;;4958256;29;20463;-72
2023/08/19 01:40:13;;;;;;;9.98;3.42;;;24.20;99.90;;;;;;4958557;29;20495;-70
2023/08/19 01:42:39;;;;;;;9.90;3.50;;;24.20;99.90;;;;;;4940809;28;20385;-71
2023/08/19 01:45:07;;;;;;;7.32;3.78;;;24.20;99.90;;;;;;4940742;29;20058;-71
2023/08/19 01:47:32;;;;;;;8.15;3.70;;;24.20;99.90;;;;;;4958106;29;20114;-72
2023/08/19 01:49:58;;;;;;;;;;;24.10;99.90;;;;;;4958938;29;20062;-72
2023/08/19 01:52:23;;;;;;;8.13;3.60;;;24.20;99.90;;;;;;4958119;29;20287;-71
2023/08/19 01:54:49;;;;;;;;;;;24.10;99.90;;;;;;4958817;28;20173;-71
2023/08/19 01:57:14;;;;;;;5.55;3.45;;;24.10;99.90;;;;;;4940871;29;19914;-71
2023/08/19 01:59:39;;;;;;;;;;;24.10;99.90;;;;;;4929588;29;20079;-71
2023/08/19 02:02:05;;;;;;;5.50;3.10;;;24.10;99.90;;;;;;4938880;29;19997;-71
2023/08/19 02:04:31;;;;;;;;;;;24.00;99.90;;;;;;4939106;29;20460;-72
2023/08/19 02:06:57;;;;;;;8.70;3.08;;;24.00;99.90;;;;;;4921545;29;19913;-72
2023/08/19 02:09:23;;;;;;;8.75;3.35;;;24.00;99.90;;;;;;4938738;29;20468;-72
2023/08/19 02:11:48;;;;;;;;;;;24.00;99.90;;;;;;4939511;29;20043;-72
2023/08/19 02:14:14;;;;;;;6.82;3.97;;;24.00;99.90;;;;;;4938858;29;19907;-72
2023/08/19 02:16:39;;;;;;;;;;;24.00;99.90;;;;;;4939574;29;20488;-72
2023/08/19 02:19:05;;;;;;;7.82;3.17;;;24.00;99.90;;;;;;4938611;29;19913;-71
2023/08/19 02:21:30;;;;;;;;;;;23.90;99.90;;;;;;4938661;29;20063;-72
2023/08/19 02:23:56;;;;;;;11.05;3.80;;;23.90;99.90;;;;;;4921276;29;20005;-71
2023/08/19 02:26:21;;;;;;;;;;;23.90;99.90;;;;;;4921711;29;20052;-71
2023/08/19 02:28:47;;;;;;;17.63;5.82;;;24.10;99.90;;;;;;4917509;29;19962;-71
2023/08/19 02:31:12;;;;;;;;;;;24.20;99.90;;;;;;4919714;29;20393;-71
2023/08/19 02:33:40;;;;;;;9.95;3.72;;;24.10;99.90;;;;;;4902232;29;20352;-72
2023/08/19 02:36:06;;;;;;;6.45;4.03;;;24.00;99.90;;;;;;4902183;29;20405;-72
2023/08/19 02:38:31;;;;;;;;;;;24.20;99.90;;;;;;4919980;29;20028;-71
2023/08/19 02:40:57;;;;;;;8.45;4.20;;;24.00;99.90;;;;;;4919154;29;19907;-71
2023/08/19 02:43:22;;;;;;;;;;;23.90;99.90;;;;;;4902523;29;20473;-71
2023/08/19 02:45:48;;;;;;;8.25;4.00;;;23.90;99.90;;;;;;4918025;29;19907;-71
2023/08/19 02:48:14;;;;;;;;;;;23.80;99.90;;;;;;4919574;29;20027;-71
2023/08/19 02:50:40;;;;;;;10.05;4.88;;;23.70;99.90;;;;;;4919507;29;20009;-71
2023/08/19 02:53:06;;;;;;;;;;;23.70;99.90;;;;;;4904123;29;20028;-71
2023/08/19 02:55:32;;;;;;;6.93;3.90;;;23.70;99.90;;;;;;4903876;29;20250;-71
2023/08/19 02:57:57;;;;;;;;;;;23.90;99.90;;;;;;4904484;29;20032;-71
2023/08/19 03:00:23;;;;;;;10.43;4.70;;;23.70;99.90;;;;;;4937270;29;19907;-71
2023/08/19 03:02:48;;;;;;;;;;;23.80;99.90;;;;;;4921548;29;20043;-71
2023/08/19 03:05:14;;;;;;;7.13;4.05;;;23.90;99.90;;;;;;4921145;29;19917;-71
2023/08/19 03:07:40;;;;;;;;;;;23.90;99.90;;;;;;4939588;29;20234;-71
2023/08/19 03:10:06;;;;;;;7.20;3.90;;;23.90;99.90;;;;;;4939520;29;19989;-72
2023/08/19 03:12:32;;;;;;;7.97;4.00;;;23.80;99.90;;;;;;4939963;29;20027;-72
2023/08/19 03:14:58;;;;;;;8.68;4.35;;;23.70;99.90;;;;;;4923132;29;20028;-72
2023/08/19 03:17:24;;;;;;;7.97;4.25;;;23.60;99.90;;;;;;4938519;29;20038;-72
2023/08/19 03:19:49;;;;;;;;;;;23.60;99.90;;;;;;4941971;29;20389;-72
2023/08/19 03:22:15;;;;;;;8.60;4.30;;;23.60;99.90;;;;;;4938271;29;19914;-72
2023/08/19 03:24:40;;;;;;;10.30;4.53;;;23.40;99.90;;;;;;4920744;29;20055;-71
2023/08/19 03:27:06;;;;;;;7.22;4.13;;;23.20;99.90;;;;;;4920806;29;20161;-71
2023/08/19 03:29:32;;;;;;;10.45;4.32;;;23.00;99.90;;;;;;4930188;29;20035;-72
2023/08/19 03:31:58;;;;;;;7.07;3.75;;;23.00;99.90;;;;;;4939261;29;20027;-71
2023/08/19 03:34:25;;;;;;;;;;;22.90;99.90;;;;;;4939669;29;20039;-71
2023/08/19 03:36:50;;;;;;;8.45;4.25;;;22.80;99.90;;;;;;4938918;29;19925;-71
2023/08/19 03:39:16;;;;;;;;;;;22.80;99.90;;;;;;4956803;29;20039;-71
2023/08/19 03:41:41;;;;;;;8.13;4.20;;;22.80;99.90;;;;;;4939124;29;19993;-71
2023/08/19 03:44:07;;;;;;;;;;;22.80;99.90;;;;;;4956671;28;20035;-71
2023/08/19 03:46:32;;;;;;;11.02;4.72;;;22.80;99.90;;;;;;4939003;29;19906;-72
2023/08/19 03:48:57;;;;;;;;;;;22.80;99.90;;;;;;4956842;29;20023;-72
2023/08/19 03:51:23;;;;;;;6.95;4.53;;;22.70;99.90;;;;;;4938793;29;19907;-72
2023/08/19 03:53:49;;;;;;;8.10;3.78;;;22.70;99.90;;;;;;4956321;28;20078;-71
2023/08/19 03:56:14;;;;;;;;;;;22.70;99.90;;;;;;4956671;29;20117;-72
2023/08/19 03:58:40;;;;;;;5.63;4.30;;;22.70;99.90;;;;;;4953085;29;19965;-72
2023/08/19 04:01:07;;;;;;;5.93;4.15;;;22.70;99.90;;;;;;4937033;29;20038;-71
2023/08/19 04:03:33;;;;;;;10.40;4.28;;;22.70;99.90;;;;;;4936673;29;20055;-71
2023/08/19 04:05:59;;;;;;;;;;;22.70;99.90;;;;;;4936695;29;20055;-71
2023/08/19 04:08:24;;;;;;;7.78;4.20;;;22.70;99.90;;;;;;4919390;29;20009;-71
2023/08/19 04:10:50;;;;;;;7.97;4.18;;;22.60;99.90;;;;;;4936494;29;20028;-71
2023/08/19 04:13:16;;;;;;;;;;;22.60;99.90;;;;;;4920087;29;20036;-71
2023/08/19 04:15:42;;;;;;;9.07;4.15;;;22.60;99.90;;;;;;4919784;29;19997;-71
2023/08/19 04:18:08;;;;;;;8.15;4.10;;;22.90;99.90;;;;;;4919483;29;20111;-71
2023/08/19 04:20:42;;;;;;;11.27;4.07;;;23.00;99.90;;;;;;4936398;29;20032;-71
2023/08/19 04:23:08;;;;;;;9.73;4.07;;;23.00;99.90;;;;;;4936020;29;20099;-71
2023/08/19 04:25:33;;;;;;;7.15;3.50;;;23.10;99.90;;;;;;4919248;29;20493;-71
2023/08/19 04:27:59;;;;;;;9.13;4.20;;;23.10;99.90;;;;;;4919244;29;20421;-71
2023/08/19 04:30:24;;;;;;;7.95;4.07;;;23.10;99.90;;;;;;4953152;29;20020;-71
2023/08/19 04:32:50;;;;;;;6.47;3.80;;;23.00;99.90;;;;;;4937981;28;20030;-71
2023/08/19 04:35:16;;;;;;;7.03;3.83;;;23.00;99.90;;;;;;4938049;29;20050;-71
2023/08/19 04:37:42;;;;;;;12.90;4.85;;;23.00;99.90;;;;;;4937794;29;20047;-72
2023/08/19 04:40:09;;;;;;;8.15;3.92;;;22.90;99.90;;;;;;4938217;29;20038;-73
2023/08/19 04:42:38;;;;;;;13.48;4.60;;;22.90;99.90;;;;;;4937830;28;20035;-71
2023/08/19 04:45:07;;;;;;;6.57;4.10;;;22.90;99.90;;;;;;4937918;29;20126;-71
2023/08/19 04:47:33;;;;;;;10.25;3.95;;;22.80;99.90;;;;;;4937898;29;20054;-71
2023/08/19 04:49:58;;;;;;;;;;;22.90;99.90;;;;;;4938226;29;20030;-72
2023/08/19 04:52:24;;;;;;;9.25;3.97;;;22.70;99.90;;;;;;4954997;29;19910;-71
2023/08/19 04:54:49;;;;;;;;;;;22.50;99.90;;;;;;4938208;29;20027;-71
2023/08/19 04:57:15;;;;;;;7.97;4.00;;;22.40;99.90;;;;;;4954945;29;20001;-71
2023/08/19 04:59:41;;;;;;;7.47;3.67;;;22.30;99.90;;;;;;4926700;29;20035;-71
2023/08/19 05:02:06;;;;;;;6.35;3.75;;;22.50;99.90;;;;;;4918811;29;20034;-72
2023/08/19 05:04:33;;;;;;;;;;;22.70;99.90;;;;;;4936100;29;20552;-72
2023/08/19 05:06:59;;;;;;;10.63;4.95;;;22.90;99.90;;;;;;4935625;29;20253;-73
2023/08/19 05:09:24;;;;;;;11.02;4.40;;;22.90;99.90;;;;;;4918844;29;20043;-71
2023/08/19 05:11:50;;;;;;;8.75;4.40;;;22.70;99.90;;;;;;4935785;29;20082;-72
2023/08/19 05:14:15;;;;;;;6.55;4.47;;;22.60;99.90;;;;;;4918691;29;20538;-72
2023/08/19 05:16:41;;;;;;;;;;;22.70;99.90;;;;;;4936093;29;20039;-71
2023/08/19 05:19:17;;;;;;;9.02;3.95;;;22.70;99.90;;;;;;4935644;29;19933;-71
2023/08/19 05:21:44;;;;;;;8.93;4.25;;;22.60;99.90;;;;;;4935584;29;20111;-76
2023/08/19 05:24:11;;;;;;;6.05;3.92;;;22.70;99.90;;;;;;4918909;29;20032;-76
2023/08/19 05:26:37;;;;;;;10.10;4.40;;;22.70;99.90;;;;;;4936148;29;20032;-76
2023/08/19 05:29:03;;;;;;;13.68;4.95;;;22.50;99.90;;;;;;4936031;29;20024;-74
2023/08/19 05:31:29;;;;;;;7.07;4.07;;;22.50;99.90;;;;;;4936081;29;20045;-76
2023/08/19 05:33:55;;;;;;;9.40;4.30;;;22.40;99.90;;;;;;4919187;29;20134;-75
2023/08/19 05:36:20;;;;;;;10.25;4.53;;;22.70;99.90;;;;;;4922507;29;20134;-75
2023/08/19 05:38:46;;;;;;;9.48;4.00;;;22.60;99.90;;;;;;4939520;29;20373;-76
2023/08/19 05:41:12;;;;;;;5.97;4.07;;;22.70;99.90;;;;;;4922480;29;20028;-76
2023/08/19 05:43:37;;;;;;;8.75;4.10;;;22.60;99.90;;;;;;4921930;29;20562;-77
2023/08/19 05:46:07;;;;;;;8.55;4.93;;;22.50;99.90;;;;;;4922150;29;20024;-76
2023/08/19 05:48:33;;;;;;;8.32;4.88;;;22.80;99.90;;;;;;4923992;29;20028;-76
2023/08/19 05:50:58;;;;;;;7.88;4.60;;;22.90;99.90;;;;;;4923821;29;20026;-75
2023/08/19 05:53:24;;;;;;;6.80;4.03;;;22.80;99.90;;;;;;4923448;29;20036;-76
2023/08/19 05:55:50;;;;;;;8.27;4.63;;;22.80;99.90;;;;;;4924113;29;20518;-76
2023/08/19 05:58:16;;;;;;;8.60;3.88;;;22.70;99.90;;;;;;4923460;29;20028;-77
2023/08/19 06:00:42;;;;;;;7.78;4.13;;;22.80;99.90;;;;;;4959928;29;20050;-76
2023/08/19 06:03:08;;;;;;;7.95;4.63;;;23.00;99.90;;;;;;4960233;28;20035;-76
2023/08/19 06:05:37;;;;;;;7.85;4.82;;;23.00;99.90;;;;;;4942668;29;20039;-77
2023/08/19 06:08:04;;;;;;;11.20;5.20;;;22.90;99.90;;;;;;4942395;29;20031;-76
2023/08/19 06:10:30;;;;;;;11.25;4.45;;;22.90;99.90;;;;;;4942280;29;20095;-75
2023/08/19 06:12:56;;;;;;;7.53;4.25;;;23.00;99.90;;;;;;4942356;28;20023;-75
2023/08/19 06:15:21;;;;;;;8.82;4.57;;;23.10;99.90;;;;;;4942791;29;20547;-76
2023/08/19 06:17:47;;;;;;;10.77;4.10;;;23.10;99.90;;;;;;4959433;29;20035;-72
2023/08/19 06:20:12;;;;;;;;;;;23.10;99.90;;;;;;4943044;29;20174;-77
2023/08/19 06:22:38;;;;;;;6.72;4.03;;;23.50;99.90;;;;;;4942284;28;19961;-78
2023/08/19 06:25:04;;;;;;;10.27;5.30;;;23.50;99.90;;;;;;4942326;29;20027;-77
2023/08/19 06:27:29;;;;;;;;;;;23.50;99.90;;;;;;4943118;29;20031;-77
2023/08/19 06:29:55;;;;;;;8.55;5.22;;;23.70;99.90;;;;;;4931886;29;20320;-78
2023/08/19 06:32:20;;;;;;;;;;;23.50;99.90;;;;;;4925304;29;20028;-77
2023/08/19 06:34:47;;;;;;;10.00;4.88;;;23.70;99.90;;;;;;4926010;29;19965;-77
2023/08/19 06:37:18;;;;;;;13.20;5.28;;;23.60;99.90;;;;;;4923689;29;20034;-77
2023/08/19 06:39:47;;;;;;;8.35;4.82;;;23.70;99.90;;;;;;4923376;29;20039;-78
2023/08/19 06:42:15;;;;;;;10.23;5.03;;;23.70;99.90;;;;;;4923035;29;20027;-77
2023/08/19 06:44:42;;;;;;;11.38;5.40;;;23.80;99.90;;;;;;4923221;29;20087;-77
2023/08/19 06:47:12;;;;;;;10.80;5.10;;;23.90;99.90;;;;;;4924369;29;20090;-77
2023/08/19 06:49:41;;;;;;;9.75;5.07;;;23.90;99.90;;;;;;4921747;29;20032;-77
2023/08/19 06:52:09;;;;;;;15.95;5.63;;;24.10;99.90;;;;;;4923077;29;20056;-78
2023/08/19 06:54:35;;;;;;;12.13;5.63;;;24.30;99.90;;;;;;4939596;29;20035;-77
2023/08/19 06:57:04;;;;;;;;;;;24.40;99.90;;;;;;4939025;29;20031;-78
2023/08/19 06:59:38;;;;;;;8.95;5.00;;;24.50;99.90;;;;;;4923587;29;20375;-78
2023/08/19 07:02:04;;;;;;;9.13;5.05;;;24.50;99.90;;;;;;4939614;29;20032;-77
2023/08/19 07:04:31;;;;;;;8.88;5.55;;;24.50;99.90;;;;;;4939864;29;20055;-79
2023/08/19 07:06:58;;;;;;;10.30;6.18;;;24.60;99.90;;;;;;4924738;29;20044;-77
2023/08/19 07:09:24;;;;;;;10.32;5.60;;;24.60;99.90;;;;;;4941893;29;20396;-77
2023/08/19 07:11:52;;;;;;;;;;;24.70;99.90;;;;;;4925862;29;20028;-76
2023/08/19 07:14:18;;;;;;;10.65;6.15;;;24.70;99.90;;;;;;4923145;29;19907;-78
2023/08/19 07:16:43;;;;;;;;;;;24.80;99.90;;;;;;4924512;29;20028;-77
2023/08/19 07:19:13;;;;;;;11.70;6.22;;;24.80;99.90;;;;;;4925712;29;19910;-76
2023/08/19 07:21:39;;;;;;;10.10;5.85;;;24.90;99.90;;;;;;4926131;29;20039;-77
2023/08/19 07:24:06;;;;;;;12.82;8.18;;;24.90;99.90;;;;;;4925163;29;20492;-77
2023/08/19 07:26:32;;;;;;;11.77;5.85;;;25.00;99.90;;;;;;4923576;29;20114;-77
2023/08/19 07:28:59;;;;;;;7.80;6.00;;;25.10;99.90;;;;;;4929198;29;20411;-77
2023/08/19 07:31:25;;;;;;;11.82;6.00;;;25.20;99.90;;;;;;4961200;29;20090;-76
2023/08/19 07:33:50;;;;;;;;;;;25.20;99.90;;;;;;4926779;29;20032;-77
2023/08/19 07:36:16;;;;;;;10.68;5.97;;;25.30;99.90;;;;;;4923501;29;19907;-77
2023/08/19 07:38:42;;;;;;;10.63;6.45;;;25.30;99.90;;;;;;4924099;29;20028;-76
2023/08/19 07:41:08;;;;;;;;;;;25.40;99.90;;;;;;4926825;29;20032;-76
2023/08/19 07:43:34;;;;;;;8.57;5.90;;;25.60;99.90;;;;;;4959472;29;19918;-76
2023/08/19 07:45:59;;;;;;;13.77;6.13;;;25.70;99.90;;;;;;4957801;29;20031;-77
2023/08/19 07:48:25;;;;;;;;;;;25.80;99.90;;;;;;4921848;29;20051;-76
2023/08/19 07:50:50;;;;;;;10.63;5.68;;;25.90;99.90;;;;;;4939024;29;19911;-76
2023/08/19 07:53:16;;;;;;;11.65;5.60;;;25.80;99.90;;;;;;4922102;29;20027;-77
2023/08/19 07:55:42;;;;;;;9.35;5.90;;;25.90;99.90;;;;;;4920238;29;20051;-76
2023/08/19 07:58:07;;;;;;;;;;;26.20;99.90;;;;;;4920996;29;20397;-76
2023/08/19 08:00:33;;;;;;;8.77;5.65;;;26.20;99.90;;;;;;4939542;29;20271;-76
2023/08/19 08:02:59;;;;;;;9.77;5.53;;;26.20;99.90;;;;;;4911932;29;20044;-76
2023/08/19 08:05:25;;;;;;;7.90;5.70;;;26.20;99.90;;;;;;4943818;29;20027;-77
2023/08/19 08:07:50;;;;;;;8.23;5.75;;;26.30;99.90;;;;;;4921454;29;20075;-76
2023/08/19 08:10:16;;;;;;;8.80;5.60;;;26.40;99.90;;;;;;4920554;29;20114;-76
2023/08/19 08:12:41;;;;;;;11.02;5.80;;;26.40;99.90;;;;;;4937965;29;20102;-76
2023/08/19 08:15:10;;;;;;;7.20;5.15;;;26.50;99.90;;;;;;4920330;29;20110;-76
2023/08/19 08:17:35;;;;;;;8.88;6.13;;;26.60;99.90;;;;;;4937205;29;20034;-76
2023/08/19 08:20:01;;;;;;;8.98;5.47;;;26.70;99.90;;;;;;4937678;29;20024;-71
2023/08/19 08:22:27;;;;;;;9.18;5.15;;;26.90;99.90;;;;;;4937583;29;20031;-71
2023/08/19 08:24:52;;;;;;;10.18;5.78;;;27.00;99.90;;;;;;4938138;29;20429;-71
2023/08/19 08:27:18;;;;;;;11.63;5.38;;;27.30;99.90;;;;;;4937663;29;20429;-70
2023/08/19 08:29:44;;;;;;;8.77;5.43;;;27.40;99.90;;;;;;4948621;29;20020;-72
2023/08/19 08:32:09;;;;;;;8.40;5.20;;;27.60;99.90;;;;;;4937582;29;20027;-73
2023/08/19 08:34:35;;;;;;;9.05;5.30;;;28.00;99.90;;;;;;4918758;29;20541;-73
2023/08/19 08:37:01;;;;;;;7.88;4.45;;;28.10;99.90;;;;;;4915366;29;20111;-72
2023/08/19 08:39:26;;;;;;;9.43;4.72;;;28.90;99.90;;;;;;4918396;29;20090;-73
2023/08/19 08:41:52;;;;;;;9.43;4.80;;;31.00;99.90;;;;;;4922800;29;20055;-72
2023/08/19 08:44:19;;;;;;;9.38;4.63;;;33.70;97.00;;;;;;4936437;29;20038;-74
2023/08/19 08:46:47;;;;;;;10.38;4.43;;;35.60;93.90;;;;;;4924058;29;20024;-74
2023/08/19 08:49:13;;;;;;;9.48;4.57;;;38.20;90.70;;;;;;4936245;29;20028;-74
2023/08/19 08:51:40;;;;;;;10.07;5.00;;;40.10;85.70;;;;;;4912065;29;20401;-74
2023/08/19 08:54:07;;;;;;;7.75;4.82;;;40.60;81.30;;;;;;4916941;29;20043;-73
2023/08/19 08:56:32;;;;;;;7.28;4.22;;;41.60;77.70;;;;;;4904313;29;20032;-73
2023/08/19 08:58:58;;;;;;;7.22;3.75;;;41.90;76.90;;;;;;4934898;29;20107;-74
2023/08/19 09:01:27;;;;;;;8.50;5.15;;;42.00;74.70;;;;;;4918405;29;20385;-74
2023/08/19 09:03:58;;;;;;;7.18;4.15;;;41.00;74.60;;;;;;4934551;29;20518;-74
2023/08/19 09:06:24;;;;;;;15.15;13.57;;;39.80;74.80;;;;;;4934494;29;20047;-74
2023/08/19 09:09:07;;;;;;;6.45;4.20;;;38.70;76.70;;;;;;4933787;29;20032;-73
2023/08/19 09:11:37;;;;;;;9.38;3.92;;;37.10;77.80;;;;;;4939683;29;20020;-73
2023/08/19 09:14:02;;;;;;;8.13;4.68;;;36.00;81.10;;;;;;4937765;29;20422;-74
2023/08/19 09:16:28;;;;;;;7.35;4.57;;;35.80;81.40;;;;;;4935139;29;20131;-74
2023/08/19 09:18:54;;;;;;;8.95;4.90;;;35.60;81.50;;;;;;4937299;29;20019;-73
2023/08/19 09:21:19;;;;;;;8.45;4.50;;;35.40;83.10;;;;;;4938986;29;20024;-73
2023/08/19 09:23:45;;;;;;;7.32;4.50;;;34.90;83.50;;;;;;4936741;29;20035;-74
2023/08/19 09:26:10;;;;;;;7.75;4.35;;;34.40;84.70;;;;;;4936909;29;20024;-74
2023/08/19 09:28:36;;;;;;;7.43;4.95;;;33.80;86.20;;;;;;4937289;29;20024;-73
2023/08/19 09:31:17;;;;;;;7.13;4.28;;;33.60;87.00;;;;;;4958557;29;20035;-73
2023/08/19 09:33:43;;;;;;;6.25;4.40;;;33.40;87.10;;;;;;4923099;29;20028;-73
2023/08/19 09:36:09;;;;;;;6.90;4.53;;;33.50;86.80;;;;;;4922192;29;20032;-75
2023/08/19 09:38:35;;;;;;;7.82;4.35;;;33.50;86.90;;;;;;4939317;29;20027;-73
2023/08/19 09:41:06;;;;;;;8.63;4.43;;;33.50;86.50;;;;;;4939606;29;20047;-72
2023/08/19 09:43:33;;;;;;;11.07;4.80;;;33.70;86.30;;;;;;4921946;29;20055;-73
2023/08/19 09:45:59;;;;;;;9.13;4.10;;;34.40;86.10;;;;;;4939581;29;20020;-72
2023/08/19 09:48:25;;;;;;;9.60;4.50;;;35.50;83.90;;;;;;4921789;29;20031;-73
2023/08/19 09:50:51;;;;;;;9.02;4.30;;;36.90;81.70;;;;;;4921939;29;20024;-72
2023/08/19 09:53:18;;;;;;;9.32;4.40;;;37.50;80.40;;;;;;4921478;29;20098;-73
2023/08/19 09:55:48;;;;;;;9.70;4.40;;;38.30;79.20;;;;;;4921948;29;20489;-73
2023/08/19 09:58:14;;;;;;;9.48;5.03;;;38.30;78.70;;;;;;4938890;29;20440;-73
2023/08/19 10:00:40;;;;;;;6.82;4.32;;;39.10;77.70;;;;;;4957720;29;20028;-73
2023/08/19 10:03:06;;;;;;;10.25;5.03;;;40.50;75.40;;;;;;4952213;29;20349;-71
2023/08/19 10:05:36;;;;;;;7.75;4.60;;;41.70;73.60;;;;;;4921214;29;20111;-73
2023/08/19 10:08:26;;;;;;;9.13;4.25;;;41.90;71.30;;;;;;4921070;29;20020;-73
2023/08/19 10:10:52;;;;;;;8.75;4.40;;;41.40;72.10;;;;;;4904463;29;20131;-73
2023/08/19 10:13:19;;;;;;;7.13;4.90;;;40.10;73.60;;;;;;4936396;29;20059;-72
2023/08/19 10:15:45;;;;;;;8.20;4.82;;;39.10;75.40;;;;;;4923705;29;20082;-68
2023/08/19 10:18:19;;;;;;;12.27;4.63;;;38.40;76.20;;;;;;4935036;29;20039;-69
2023/08/19 10:20:50;;;;;;;7.30;4.40;;;37.50;77.80;;;;;;4937760;29;20055;-70
2023/08/19 10:23:17;;;;;;;9.23;4.80;;;37.00;79.10;;;;;;4920527;29;20111;-71
2023/08/19 10:25:43;;;;;;;6.97;4.35;;;36.70;79.90;;;;;;4928611;29;20058;-68
2023/08/19 10:28:28;;;;;;;8.00;4.45;;;36.10;80.10;;;;;;4937919;29;20034;-69
2023/08/19 10:31:10;;;;;;;9.38;4.63;;;35.50;81.90;;;;;;4904156;29;20033;-70
2023/08/19 10:33:41;;;;;;;7.63;5.28;;;35.20;83.10;;;;;;4920830;29;20110;-71
2023/08/19 10:36:08;;;;;;;7.00;4.60;;;35.50;83.50;;;;;;4929777;29;20058;-69
2023/08/19 10:38:48;;;;;;;16.48;4.68;;;36.20;83.10;;;;;;4938164;29;20075;-71
2023/08/19 10:41:24;;;;;;;6.43;4.13;;;36.40;83.00;;;;;;4937991;29;20034;-70
2023/08/19 10:43:53;;;;;;;10.43;4.53;;;35.80;83.90;;;;;;4935617;29;20385;-72
2023/08/19 10:46:19;;;;;;;5.28;4.55;;;35.10;85.20;;;;;;4937300;29;20055;-71
2023/08/19 10:48:51;;;;;;;9.07;4.90;;;34.60;86.40;;;;;;4932512;29;20028;-70
2023/08/19 10:51:18;;;;;;;8.55;4.70;;;34.10;87.80;;;;;;4937898;29;20151;-71
2023/08/19 10:54:06;;;;;;;13.35;5.28;;;33.80;88.40;;;;;;4920544;29;20031;-71
2023/08/19 10:56:32;;;;;;;9.23;4.80;;;33.80;88.40;;;;;;4938177;29;20062;-72
2023/08/19 10:58:58;;;;;;;7.70;4.30;;;33.90;88.20;;;;;;4943481;29;20365;-71
2023/08/19 11:01:28;;;;;;;9.15;4.68;;;33.70;88.30;;;;;;4957106;29;20023;-71
2023/08/19 11:03:56;;;;;;;6.38;4.13;;;33.50;88.30;;;;;;4956732;28;20050;-71
2023/08/19 11:06:27;;;;;;;6.65;4.95;;;33.80;88.10;;;;;;4957210;29;20023;-70
2023/08/19 11:08:52;;;;;;;9.57;4.57;;;34.00;87.20;;;;;;4939907;29;20026;-72
2023/08/19 11:11:18;;;;;;;9.90;4.20;;;34.20;86.10;;;;;;4956958;29;20027;-71
2023/08/19 11:13:44;;;;;;;8.73;3.92;;;34.50;85.30;;;;;;4957135;28;20027;-71
2023/08/19 11:16:09;;;;;;;6.90;4.30;;;35.00;84.70;;;;;;4939730;29;20040;-71
2023/08/19 11:18:40;;;;;;;6.80;4.57;;;35.00;84.30;;;;;;4939385;29;20054;-70
2023/08/19 11:21:06;;;;;;;10.32;4.85;;;34.90;84.50;;;;;;4957133;29;20019;-70
2023/08/19 11:23:32;;;;;;;8.00;4.18;;;34.80;84.30;;;;;;4939558;29;20074;-70
2023/08/19 11:25:58;;;;;;;6.82;4.65;;;34.50;84.70;;;;;;4939837;29;20023;-71
2023/08/19 11:28:27;;;;;;;7.22;4.30;;;34.10;85.60;;;;;;4955302;29;20484;-72
2023/08/19 11:30:53;;;;;;;7.05;4.18;;;33.90;86.10;;;;;;4919981;29;20396;-71
2023/08/19 11:33:19;;;;;;;9.32;4.38;;;33.80;86.00;;;;;;4919003;29;20027;-72
2023/08/19 11:35:46;;;;;;;6.95;4.05;;;33.80;86.20;;;;;;4937079;29;20027;-70
2023/08/19 11:38:13;;;;;;;6.38;4.40;;;33.70;86.10;;;;;;4936749;29;20027;-71
2023/08/19 11:40:39;;;;;;;7.30;3.80;;;33.80;86.10;;;;;;4919898;29;20118;-70
2023/08/19 11:43:08;;;;;;;7.35;4.90;;;33.90;86.20;;;;;;4937165;29;20107;-69
2023/08/19 11:45:41;;;;;;;7.00;4.38;;;33.90;86.50;;;;;;4937378;29;20130;-69
2023/08/19 11:48:11;;;;;;;9.85;3.80;;;34.00;86.20;;;;;;4936790;29;20110;-69
2023/08/19 11:50:43;;;;;;;8.88;4.40;;;34.00;86.40;;;;;;4919724;29;20024;-66
2023/08/19 11:53:19;;;;;;;8.32;4.22;;;34.00;86.50;;;;;;4938627;29;20024;-69
2023/08/19 11:55:52;;;;;;;8.50;4.50;;;33.70;87.10;;;;;;4936829;29;20028;-69
2023/08/19 11:58:18;;;;;;;7.30;4.40;;;33.50;87.50;;;;;;4936696;29;20031;-70
2023/08/19 12:00:44;;;;;;;10.23;4.50;;;33.20;88.80;;;;;;4919705;29;20034;-70
2023/08/19 12:03:10;;;;;;;7.00;4.45;;;33.00;88.70;;;;;;4936306;29;20082;-69
2023/08/19 12:05:42;;;;;;;8.10;5.05;;;33.00;88.60;;;;;;4936732;29;20028;-68
2023/08/19 12:08:08;;;;;;;8.15;4.13;;;32.90;88.10;;;;;;4919478;29;20060;-67
2023/08/19 12:10:42;;;;;;;6.28;4.10;;;32.70;86.80;;;;;;4920236;29;20055;-69
2023/08/19 12:13:08;;;;;;;6.15;4.10;;;32.60;87.10;;;;;;4919460;29;20028;-69
2023/08/19 12:15:36;;;;;;;6.85;4.80;;;32.50;87.70;;;;;;4935998;29;20082;-67
2023/08/19 12:18:16;;;;;;;4.85;4.20;;;32.40;88.30;;;;;;4934204;29;20672;-68
2023/08/19 12:20:41;;;;;;;15.63;5.25;;;32.40;89.00;;;;;;4926900;29;20115;-70
2023/08/19 12:23:07;;;;;;;7.45;4.80;;;32.30;88.90;;;;;;4916358;29;20119;-68
2023/08/19 12:25:38;;;;;;;7.82;4.90;;;32.20;89.00;;;;;;4935174;29;20035;-67
2023/08/19 12:28:04;;;;;;;9.32;5.18;;;31.90;89.60;;;;;;4935787;29;20059;-69
2023/08/19 12:30:30;;;;;;;10.45;5.15;;;31.80;90.10;;;;;;4929552;29;20032;-67
2023/08/19 12:33:00;;;;;;;8.80;4.78;;;31.80;90.00;;;;;;4918402;29;20102;-67
2023/08/19 12:35:26;;;;;;;9.68;4.78;;;31.60;90.10;;;;;;4935991;29;20020;-66
2023/08/19 12:37:52;;;;;;;7.13;4.10;;;31.60;90.40;;;;;;4934842;29;20548;-66
2023/08/19 12:40:17;;;;;;;6.93;4.35;;;31.50;90.70;;;;;;4918848;29;20062;-66
2023/08/19 12:42:46;;;;;;;11.43;4.78;;;31.30;90.80;;;;;;4935506;29;20132;-66
2023/08/19 12:45:12;;;;;;;9.10;5.10;;;31.20;90.90;;;;;;4935229;29;20051;-66
2023/08/19 12:47:41;;;;;;;12.02;4.68;;;31.00;91.20;;;;;;4935261;29;20052;-67
2023/08/19 12:50:07;;;;;;;9.00;4.63;;;30.80;91.70;;;;;;4936279;29;20019;-67
2023/08/19 12:52:42;;;;;;;6.93;4.80;;;30.80;91.80;;;;;;4928600;29;20104;-67
2023/08/19 12:55:10;;;;;;;8.50;4.88;;;30.60;92.10;;;;;;4917998;29;20026;-71
2023/08/19 12:57:42;;;;;;;8.50;5.55;;;30.70;92.10;;;;;;4924662;29;20482;-71